Time;durP1;ratioP1;P1;durP2;ratioP2;P2;SDS_P1;SDS_P2;PMS_P1;PMS_P2;Temp;Humidity;BMP_temperature;BMP_pressure;BME280_temperature;BME280_humidity;BME280_pressure;Samples;Min_cycle;Max_cycle;Signal;HPM_P1;HPM_P2
2023/07/16 00:01:10;;;;;;;;;;;;;;;23.49;53.96;100784.66;5035804;28;19919;-72
2023/07/16 00:03:35;;;;;;;;;;;;;;;23.48;53.82;100788.38;5050733;28;19913;-72
2023/07/16 00:06:00;;;;;;;;;;;;;;;23.48;53.89;100787.56;5050852;28;19924;-72
2023/07/16 00:08:25;;;;;;;;;;;;;;;23.48;53.78;100787.56;5045236;28;19917;-72
2023/07/16 00:10:50;;;;;;;;;;;;;;;23.48;53.72;100796.53;5084259;28;20313;-72
2023/07/16 00:13:16;;;;;;;;;;;;;;;23.47;53.88;100803.00;5056286;28;19917;-72
2023/07/16 00:15:41;;;;;;;;;;;;;;;23.47;53.52;100804.88;5051470;28;19917;-71
2023/07/16 00:18:06;;;;;;;;;;;;;;;23.47;53.71;100807.59;5052477;28;20501;-72
2023/07/16 00:20:32;;;;;;;;;;;;;;;23.46;53.49;100809.47;5086829;28;19992;-72
2023/07/16 00:22:57;;;;;;;;;;;;;;;23.46;53.67;100812.19;5054868;28;19917;-71
2023/07/16 00:25:22;;;;;;;;;;;;;;;23.45;53.48;100813.25;5050892;28;20290;-73
2023/07/16 00:27:48;;;;;;;;;;;;;;;23.44;53.68;100817.81;5051984;28;19920;-72
2023/07/16 00:30:13;;;;;;;;;;;;;;;23.44;53.70;100812.38;5051833;28;19965;-72
2023/07/16 00:32:38;;;;;;;;;;;;;;;23.44;53.36;100811.53;5051533;28;19913;-72
2023/07/16 00:35:04;;;;;;;;;;;;;;;23.45;53.59;100807.81;5050448;28;19913;-73
2023/07/16 00:37:30;;;;;;;;;;;;;;;23.44;53.49;100806.13;5032195;28;20089;-73
2023/07/16 00:39:55;;;;;;;;;;;;;;;23.42;53.59;100806.31;5055544;28;19920;-72
2023/07/16 00:42:20;;;;;;;;;;;;;;;23.43;53.47;100802.56;5052386;28;19913;-72
2023/07/16 00:44:45;;;;;;;;;;;;;;;23.43;53.22;100807.16;5085891;28;19913;-72
2023/07/16 00:47:11;;;;;;;;;;;;;;;23.43;53.25;100801.72;5051041;28;19921;-72
2023/07/16 00:49:37;;;;;;;;;;;;;;;23.42;53.43;100798.19;5069062;28;19913;-72
2023/07/16 00:52:02;;;;;;;;;;;;;;;23.42;53.27;100800.06;5051904;28;19913;-72
2023/07/16 00:54:28;;;;;;;;;;;;;;;23.42;53.29;100808.22;5035170;28;19928;-72
2023/07/16 00:56:53;;;;;;;;;;;;;;;23.43;53.12;100804.44;5084620;28;19913;-72
2023/07/16 00:59:19;;;;;;;;;;;;;;;23.42;52.92;100810.91;5049436;28;19951;-72
2023/07/16 01:01:44;;;;;;;;;;;;;;;23.40;53.09;100808.38;5052589;28;19988;-72
2023/07/16 01:04:12;;;;;;;;;;;;;;;23.40;52.83;100805.66;5048417;28;19921;-72
2023/07/16 01:06:38;;;;;;;;;;;;;;;23.41;52.90;100803.81;5052208;28;19924;-72
2023/07/16 01:09:06;;;;;;;;;;;;;;;23.41;52.65;100803.81;5066719;28;19917;-72
2023/07/16 01:11:32;;;;;;;;;;;;;;;23.41;52.58;100803.81;5048944;28;20375;-72
2023/07/16 01:13:57;;;;;;;;;;;;;;;23.40;52.39;100811.09;5053217;28;19932;-72
2023/07/16 01:16:23;;;;;;;;;;;;;;;23.40;52.40;100805.66;5052113;28;19920;-72
2023/07/16 01:18:48;;;;;;;;;;;;;;;23.40;52.44;100804.84;5034378;28;19939;-72
2023/07/16 01:21:14;;;;;;;;;;;;;;;23.40;52.56;100811.09;5053492;28;19913;-72
2023/07/16 01:23:51;;;;;;;;;;;;;;;23.40;52.31;100815.69;5080370;28;19952;-72
2023/07/16 01:26:35;;;;;;;;;;;;;;;23.39;52.11;100814.84;5048986;28;19959;-72
2023/07/16 01:29:19;;;;;;;;;;;;;;;23.39;52.09;100809.44;5051278;28;20620;-72
2023/07/16 01:31:45;;;;;;;;;;;;;;;23.38;51.90;100807.75;5046500;28;19920;-72
2023/07/16 01:34:10;;;;;;;;;;;;;;;23.37;52.08;100811.53;5068991;28;20007;-72
2023/07/16 01:36:35;;;;;;;;;;;;;;;23.38;51.82;100809.66;5033450;28;19920;-72
2023/07/16 01:39:01;;;;;;;;;;;;;;;23.37;51.77;100806.09;5051737;28;19913;-72
2023/07/16 01:41:26;;;;;;;;;;;;;;;23.38;52.13;100815.06;5067708;28;19917;-72
2023/07/16 01:43:51;;;;;;;;;;;;;;;23.37;51.86;100802.56;5050714;28;20011;-72
2023/07/16 01:46:17;;;;;;;;;;;;;;;23.36;51.67;100801.72;5051624;28;19924;-72
2023/07/16 01:48:42;;;;;;;;;;;;;;;23.36;51.81;100804.44;5053382;28;19916;-72
2023/07/16 01:51:07;;;;;;;;;;;;;;;23.36;51.78;100809.84;5051798;28;19936;-72
2023/07/16 01:53:33;;;;;;;;;;;;;;;23.36;51.41;100800.84;5049915;28;20434;-72
2023/07/16 01:55:58;;;;;;;;;;;;;;;23.35;51.48;100812.75;5050466;28;20268;-72
2023/07/16 01:58:23;;;;;;;;;;;;;;;23.34;51.33;100800.22;5079399;28;19913;-72
2023/07/16 02:00:49;;;;;;;;;;;;;;;23.34;51.51;100794.81;5051617;28;19916;-72
2023/07/16 02:03:14;;;;;;;;;;;;;;;23.34;51.51;100803.78;5049402;28;19913;-72
2023/07/16 02:05:40;;;;;;;;;;;;;;;23.35;51.32;100799.19;5050780;28;19928;-72
2023/07/16 02:08:06;;;;;;;;;;;;;;;23.34;51.13;100802.94;5080574;28;19913;-72
2023/07/16 02:10:31;;;;;;;;;;;;;;;23.32;51.21;100803.16;5034145;28;19924;-72
2023/07/16 02:12:56;;;;;;;;;;;;;;;23.33;51.17;100804.00;5053251;28;19913;-72
2023/07/16 02:15:21;;;;;;;;;;;;;;;23.32;51.33;100810.44;5051789;28;19913;-72
2023/07/16 02:17:47;;;;;;;;;;;;;;;23.32;51.03;100805.00;5082505;28;19924;-72
2023/07/16 02:20:12;;;;;;;;;;;;;;;23.31;51.17;100806.88;5050310;28;19980;-72
2023/07/16 02:22:37;;;;;;;;;;;;;;;23.31;51.01;100803.34;5050755;28;20413;-72
2023/07/16 02:25:03;;;;;;;;;;;;;;;23.30;51.06;100807.09;5049414;28;19964;-72
2023/07/16 02:27:28;;;;;;;;;;;;;;;23.30;51.09;100801.66;5085388;28;19944;-72
2023/07/16 02:29:53;;;;;;;;;;;;;;;23.28;50.89;100810.00;5051152;28;19917;-72
2023/07/16 02:32:19;;;;;;;;;;;;;;;23.27;50.77;100805.59;5050398;28;19920;-72
2023/07/16 02:34:44;;;;;;;;;;;;;;;23.27;50.93;100818.34;5053987;28;19959;-72
2023/07/16 02:37:09;;;;;;;;;;;;;;;23.24;50.81;100814.16;5052191;28;19928;-72
2023/07/16 02:39:34;;;;;;;;;;;;;;;22.80;50.74;100735.81;5036647;28;19914;-72
2023/07/16 02:41:59;;;;;;;;;;;;;;;23.23;50.86;100815.19;5049921;28;19975;-72
2023/07/16 02:44:25;;;;;;;;;;;;;;;23.23;50.77;100825.19;5056787;28;19939;-72
2023/07/16 02:46:50;;;;;;;;;;;;;;;23.20;50.67;100824.56;5053300;28;19925;-72
2023/07/16 02:49:16;;;;;;;;;;;;;;;23.20;50.81;100823.72;5051311;28;20429;-72
2023/07/16 02:51:41;;;;;;;;;;;;;;;23.19;50.70;100822.91;5035049;28;19917;-72
2023/07/16 02:54:06;;;;;;;;;;;;;;;23.18;50.42;100818.50;5052805;28;19917;-72
2023/07/16 02:56:31;;;;;;;;;;;;;;;23.18;50.73;100815.78;5082223;28;19940;-72
2023/07/16 02:58:56;;;;;;;;;;;;;;;23.17;50.59;100819.53;5065158;28;19927;-72
2023/07/16 03:01:22;;;;;;;;;;;;;;;23.17;50.58;100819.53;5056518;28;19944;-72
2023/07/16 03:03:47;;;;;;;;;;;;;;;23.17;50.43;100819.53;5085859;28;19917;-72
2023/07/16 03:06:12;;;;;;;;;;;;;;;23.17;50.45;100821.41;5052729;28;19992;-72
2023/07/16 03:08:37;;;;;;;;;;;;;;;23.15;50.54;100821.63;5055914;28;19944;-72
2023/07/16 03:11:02;;;;;;;;;;;;;;;23.15;50.43;100821.63;5051323;28;19928;-72
2023/07/16 03:13:28;;;;;;;;;;;;;;;23.15;50.15;100826.19;5053983;28;19921;-72
2023/07/16 03:15:53;;;;;;;;;;;;;;;23.15;50.34;100826.19;5035975;28;19923;-72
2023/07/16 03:18:18;;;;;;;;;;;;;;;23.14;50.38;100819.94;5052453;28;20011;-72
2023/07/16 03:20:44;;;;;;;;;;;;;;;23.14;50.38;100813.66;5050530;28;19925;-72
2023/07/16 03:23:09;;;;;;;;;;;;;;;23.13;50.08;100817.41;5051827;28;19979;-72
2023/07/16 03:25:34;;;;;;;;;;;;;;;23.13;50.35;100818.25;5050511;28;20428;-72
2023/07/16 03:27:59;;;;;;;;;;;;;;;23.13;49.99;100825.56;5051692;28;20361;-72
2023/07/16 03:30:24;;;;;;;;;;;;;;;23.13;50.04;100822.84;5048855;28;19917;-72
2023/07/16 03:32:50;;;;;;;;;;;;;;;23.13;50.02;100822.84;5048327;28;19973;-72
2023/07/16 03:35:15;;;;;;;;;;;;;;;23.12;50.09;100824.72;5051860;28;19924;-72
2023/07/16 03:37:40;;;;;;;;;;;;;;;23.13;50.04;100828.28;5081602;28;19925;-72
2023/07/16 03:40:15;;;;;;;;;;;;;;;23.12;49.89;100832.88;5053317;28;19924;-72
2023/07/16 03:42:41;;;;;;;;;;;;;;;23.11;50.07;100831.19;5050149;28;19966;-72
2023/07/16 03:45:06;;;;;;;;;;;;;;;23.11;50.12;100830.34;5050608;28;19917;-72
2023/07/16 03:47:31;;;;;;;;;;;;;;;23.11;49.87;100835.78;5034751;28;19917;-72
2023/07/16 03:49:57;;;;;;;;;;;;;;;23.11;49.67;100835.78;5048241;28;19940;-72
2023/07/16 03:52:23;;;;;;;;;;;;;;;23.10;49.84;100843.06;5047791;28;19917;-72
2023/07/16 03:54:48;;;;;;;;;;;;;;;23.10;50.01;100842.22;5077650;28;20267;-71
2023/07/16 03:57:13;;;;;;;;;;;;;;;23.09;49.65;100838.66;5053598;28;20392;-72
2023/07/16 03:59:38;;;;;;;;;;;;;;;23.09;49.89;100835.13;5050487;28;19924;-71
2023/07/16 04:02:04;;;;;;;;;;;;;;;23.09;49.81;100854.09;5051467;28;19917;-72
2023/07/16 04:04:29;;;;;;;;;;;;;;;23.09;49.84;100854.09;5053261;28;19928;-72
2023/07/16 04:06:56;;;;;;;;;;;;;;;23.08;49.76;100852.44;5049301;28;19921;-71
2023/07/16 04:09:22;;;;;;;;;;;;;;;23.08;49.86;100857.88;5076891;28;19964;-72
2023/07/16 04:11:47;;;;;;;;;;;;;;;23.08;49.77;100853.28;5052050;28;19975;-72
2023/07/16 04:14:12;;;;;;;;;;;;;;;23.07;49.78;100862.44;5050690;28;19917;-72
2023/07/16 04:16:38;;;;;;;;;;;;;;;23.08;49.77;100857.88;5050539;28;19917;-72
2023/07/16 04:19:04;;;;;;;;;;;;;;;23.07;49.64;100858.91;4982139;28;1996528;-71
2023/07/16 04:21:30;;;;;;;;;;;;;;;23.06;49.67;100858.03;5076493;28;19921;-73
2023/07/16 04:23:55;;;;;;;;;;;;;;;23.06;49.71;100870.78;5050457;28;19924;-72
2023/07/16 04:26:20;;;;;;;;;;;;;;;23.06;49.77;100871.59;5049007;28;19935;-71
2023/07/16 04:28:45;;;;;;;;;;;;;;;23.06;49.53;100871.59;5051293;28;19921;-72
2023/07/16 04:31:10;;;;;;;;;;;;;;;23.06;49.55;100862.63;5049667;28;19916;-72
2023/07/16 04:33:36;;;;;;;;;;;;;;;23.05;49.75;100867.22;5034375;28;20007;-72
2023/07/16 04:36:01;;;;;;;;;;;;;;;23.06;49.55;100876.19;5050392;28;19916;-72
2023/07/16 04:38:26;;;;;;;;;;;;;;;23.05;49.62;100879.94;5050877;28;19917;-71
2023/07/16 04:40:51;;;;;;;;;;;;;;;23.05;49.48;100874.53;5051734;28;19921;-72
2023/07/16 04:43:16;;;;;;;;;;;;;;;23.04;49.67;100883.69;5050780;28;19921;-73
2023/07/16 04:45:44;;;;;;;;;;;;;;;23.03;49.46;100895.59;5051578;28;19929;-73
2023/07/16 04:48:09;;;;;;;;;;;;;;;23.03;49.46;100882.03;5046238;28;19918;-73
2023/07/16 04:50:34;;;;;;;;;;;;;;;23.03;49.64;100893.72;5082921;28;19917;-73
2023/07/16 04:52:59;;;;;;;;;;;;;;;23.02;49.33;100889.31;5050068;28;19932;-73
2023/07/16 04:55:25;;;;;;;;;;;;;;;23.02;49.64;100883.03;5049032;28;19917;-73
2023/07/16 04:57:53;;;;;;;;;;;;;;;23.02;49.37;100888.47;5051087;28;19920;-73
2023/07/16 05:00:18;;;;;;;;;;;;;;;23.01;49.37;100890.34;5066208;28;19917;-73
2023/07/16 05:02:43;;;;;;;;;;;;;;;23.01;49.27;100894.94;5048327;28;19924;-72
2023/07/16 05:05:08;;;;;;;;;;;;;;;23.01;49.20;100894.94;5050907;28;19921;-72
2023/07/16 05:07:34;;;;;;;;;;;;;;;22.99;49.33;100895.13;5048551;28;19928;-73
2023/07/16 05:09:59;;;;;;;;;;;;;;;22.99;49.13;100895.13;5050612;28;19917;-73
2023/07/16 05:12:24;;;;;;;;;;;;;;;23.00;49.00;100901.41;5053480;28;19917;-75
2023/07/16 05:14:49;;;;;;;;;;;;;;;22.99;49.29;100907.88;5046622;28;19921;-74
2023/07/16 05:17:15;;;;;;;;;;;;;;;22.56;49.19;100830.09;5047417;28;19921;-74
2023/07/16 05:19:40;;;;;;;;;;;;;;;23.01;49.42;100906.63;5075771;28;19925;-74
2023/07/16 05:22:05;;;;;;;;;;;;;;;23.01;49.37;100895.75;5048485;28;19917;-75
2023/07/16 05:24:31;;;;;;;;;;;;;;;23.02;49.58;100912.88;5079139;28;20286;-76
2023/07/16 05:26:56;;;;;;;;;;;;;;;23.02;49.75;100912.88;5049423;28;19921;-76
2023/07/16 05:29:22;;;;;;;;;;;;;;;23.02;49.61;100911.00;5049253;28;19928;-75
2023/07/16 05:31:47;;;;;;;;;;;;;;;23.03;49.74;100914.56;5053789;28;20428;-76
2023/07/16 05:34:12;;;;;;;;;;;;;;;23.03;49.61;100915.41;5049203;28;19959;-73
2023/07/16 05:36:38;;;;;;;;;;;;;;;23.04;49.55;100916.25;5050247;28;20362;-73
2023/07/16 05:39:03;;;;;;;;;;;;;;;23.03;49.74;100920.00;5082170;28;20378;-76
2023/07/16 05:41:28;;;;;;;;;;;;;;;23.03;49.60;100928.97;5047849;28;20078;-76
2023/07/16 05:43:53;;;;;;;;;;;;;;;23.04;49.50;100932.50;5047856;28;20396;-75
2023/07/16 05:46:18;;;;;;;;;;;;;;;23.04;49.47;100927.09;5048431;28;19953;-77
2023/07/16 05:48:44;;;;;;;;;;;;;;;23.03;49.66;100931.69;5046583;28;19927;-77
2023/07/16 05:51:09;;;;;;;;;;;;;;;23.04;49.55;100937.94;5046952;28;19924;-73
2023/07/16 05:53:34;;;;;;;;;;;;;;;23.04;49.39;100937.94;5049586;28;19921;-73
2023/07/16 05:55:59;;;;;;;;;;;;;;;23.05;49.67;100942.31;5048274;28;19924;-69
2023/07/16 05:58:25;;;;;;;;;;;;;;;23.05;49.47;100936.91;5050536;28;19928;-74
2023/07/16 06:00:50;;;;;;;;;;;;;;;23.04;49.55;100946.06;5050185;28;19920;-73
2023/07/16 06:03:16;;;;;;;;;;;;;;;23.04;49.37;100946.91;5051685;28;20042;-71
2023/07/16 06:05:42;;;;;;;;;;;;;;;23.05;49.49;100939.59;5080648;28;19929;-72
2023/07/16 06:08:07;;;;;;;;;;;;;;;23.04;49.23;100933.34;5050767;28;19964;-72
2023/07/16 06:10:33;;;;;;;;;;;;;;;23.04;49.42;100930.63;5079429;28;20262;-73
2023/07/16 06:12:58;;;;;;;;;;;;;;;23.05;49.26;100947.75;5046635;28;19921;-72
2023/07/16 06:15:24;;;;;;;;;;;;;;;23.05;49.12;100936.91;5045656;28;19923;-73
2023/07/16 06:17:49;;;;;;;;;;;;;;;23.04;48.67;100944.19;5049393;28;19978;-73
2023/07/16 06:20:14;;;;;;;;;;;;;;;23.05;48.80;100953.16;5046496;28;19924;-72
2023/07/16 06:22:39;;;;;;;;;;;;;;;23.03;48.52;100956.09;5048105;28;19917;-72
2023/07/16 06:25:05;;;;;;;;;;;;;;;23.03;48.51;100956.09;5082075;28;19971;-73
2023/07/16 06:27:30;;;;;;;;;;;;;;;23.02;48.75;100957.09;5052448;28;20133;-73
2023/07/16 06:29:55;;;;;;;;;;;;;;;23.03;48.19;100956.09;5052277;28;19913;-74
2023/07/16 06:32:21;;;;;;;;;;;;;;;23.02;48.20;100959.81;5050338;28;19928;-73
2023/07/16 06:34:46;;;;;;;;;;;;;;;23.03;47.72;100966.09;5051810;28;19917;-73
2023/07/16 06:37:11;;;;;;;;;;;;;;;22.57;47.51;100893.25;5048558;28;19976;-75
2023/07/16 06:39:36;;;;;;;;;;;;;;;23.02;47.54;100964.38;5052973;28;19976;-74
2023/07/16 06:42:01;;;;;;;;;;;;;;;23.02;47.60;100962.50;5048385;28;19984;-75
2023/07/16 06:44:27;;;;;;;;;;;;;;;23.02;47.93;100964.38;5049999;28;19943;-74
2023/07/16 06:46:52;;;;;;;;;;;;;;;23.02;47.58;100967.94;5050328;28;19921;-74
2023/07/16 06:49:17;;;;;;;;;;;;;;;23.03;47.39;100974.22;5047226;28;20003;-75
2023/07/16 06:51:43;;;;;;;;;;;;;;;23.02;47.40;100978.78;5083529;28;19921;-75
2023/07/16 06:54:08;;;;;;;;;;;;;;;23.02;47.63;100969.81;5051774;28;19960;-73
2023/07/16 06:56:33;;;;;;;;;;;;;;;23.02;47.39;100975.25;5050391;28;19952;-73
2023/07/16 06:58:58;;;;;;;;;;;;;;;23.02;47.15;100981.50;5082466;28;19913;-74
2023/07/16 07:01:24;;;;;;;;;;;;;;;23.02;47.01;100975.25;5051921;28;19992;-75
2023/07/16 07:03:49;;;;;;;;;;;;;;;23.02;47.02;100986.09;5048766;28;19917;-75
2023/07/16 07:06:14;;;;;;;;;;;;;;;23.01;46.86;100979.00;5050057;28;19928;-76
2023/07/16 07:08:39;;;;;;;;;;;;;;;23.01;47.03;100979.00;5045995;28;20145;-75
2023/07/16 07:11:04;;;;;;;;;;;;;;;23.01;47.01;100971.69;5048644;28;19917;-74
2023/07/16 07:13:30;;;;;;;;;;;;;;;23.02;47.58;100986.09;5053479;28;19925;-75
2023/07/16 07:15:55;;;;;;;;;;;;;;;23.01;47.95;100985.25;5063543;28;20294;-73
2023/07/16 07:18:21;;;;;;;;;;;;;;;23.01;47.75;100985.25;5053486;28;19971;-73
2023/07/16 07:20:47;;;;;;;;;;;;;;;23.01;47.78;100987.97;5052153;28;19947;-73
2023/07/16 07:23:12;;;;;;;;;;;;;;;23.01;47.62;101001.53;5052425;28;19987;-75
2023/07/16 07:25:37;;;;;;;;;;;;;;;23.00;47.64;100994.44;5067122;28;19929;-73
2023/07/16 07:28:03;;;;;;;;;;;;;;;23.01;47.34;101003.41;5051331;28;19944;-73
2023/07/16 07:30:28;;;;;;;;;;;;;;;23.00;47.78;100991.72;5051188;28;19917;-73
2023/07/16 07:32:53;;;;;;;;;;;;;;;23.01;47.75;100995.25;5052467;28;20370;-73
2023/07/16 07:35:18;;;;;;;;;;;;;;;23.00;47.52;100991.72;5052582;28;19956;-75
2023/07/16 07:37:44;;;;;;;;;;;;;;;23.01;47.44;100989.84;5049801;28;19921;-72
2023/07/16 07:40:09;;;;;;;;;;;;;;;23.00;47.53;100999.84;5050043;28;19932;-75
2023/07/16 07:42:34;;;;;;;;;;;;;;;23.01;47.17;100992.56;5050114;28;19925;-73
2023/07/16 07:45:00;;;;;;;;;;;;;;;23.00;47.05;100993.59;5051875;28;19921;-76
2023/07/16 07:47:25;;;;;;;;;;;;;;;23.00;46.93;101001.72;5047578;28;19964;-75
2023/07/16 07:49:52;;;;;;;;;;;;;;;23.00;46.79;101004.44;5051453;28;20473;-74
2023/07/16 07:52:17;;;;;;;;;;;;;;;23.00;46.96;101015.28;5052404;28;19939;-74
2023/07/16 07:54:42;;;;;;;;;;;;;;;23.00;46.96;101018.00;5053728;28;20370;-74
2023/07/16 07:57:07;;;;;;;;;;;;;;;23.00;46.88;101026.13;5048025;28;19932;-73
2023/07/16 07:59:32;;;;;;;;;;;;;;;23.01;47.07;101027.81;5044075;28;19924;-73
2023/07/16 08:01:58;;;;;;;;;;;;;;;23.01;46.89;101033.22;5053983;28;19925;-74
2023/07/16 08:04:23;;;;;;;;;;;;;;;23.01;47.07;101046.78;5047341;28;20290;-74
2023/07/16 08:06:49;;;;;;;;;;;;;;;23.01;46.85;101042.19;5050649;28;20622;-74
2023/07/16 08:09:14;;;;;;;;;;;;;;;23.02;46.77;101048.47;5041646;28;19975;-74
2023/07/16 08:11:39;;;;;;;;;;;;;;;23.01;46.52;101049.50;5047160;28;19925;-74
2023/07/16 08:14:05;;;;;;;;;;;;;;;23.01;46.80;101047.63;5077180;28;19917;-74
2023/07/16 08:16:30;;;;;;;;;;;;;;;23.02;46.89;101052.00;5044293;28;19925;-73
2023/07/16 08:18:55;;;;;;;;;;;;;;;23.02;46.75;101062.84;5051407;28;20676;-73
2023/07/16 08:21:20;;;;;;;;;;;;;;;23.01;46.70;101066.59;5083044;28;19928;-73
2023/07/16 08:23:49;;;;;;;;;;;;;;;23.02;46.76;101070.97;5047319;28;19917;-75
2023/07/16 08:26:14;;;;;;;;;;;;;;;23.01;46.53;101065.75;5051759;28;19925;-73
2023/07/16 08:28:39;;;;;;;;;;;;;;;23.00;46.47;101062.22;5051355;28;20023;-73
2023/07/16 08:31:04;;;;;;;;;;;;;;;23.00;46.71;101056.78;5082791;28;19940;-73
2023/07/16 08:33:29;;;;;;;;;;;;;;;23.02;46.60;101067.44;5049595;28;19935;-73
2023/07/16 08:35:55;;;;;;;;;;;;;;;22.99;46.54;101065.97;5047812;28;19917;-74
2023/07/16 08:38:20;;;;;;;;;;;;;;;23.01;46.40;101065.75;5047634;28;19921;-73
2023/07/16 08:40:47;;;;;;;;;;;;;;;23.02;46.16;101070.16;5052384;28;19925;-73
2023/07/16 08:43:12;;;;;;;;;;;;;;;23.02;46.44;101070.97;5047415;28;19920;-74
2023/07/16 08:45:42;;;;;;;;;;;;;;;23.03;46.26;101080.00;5050614;28;20382;-73
2023/07/16 08:48:07;;;;;;;;;;;;;;;23.04;46.64;101076.25;5080019;28;19921;-73
2023/07/16 08:50:33;;;;;;;;;;;;;;;23.04;46.64;101079.78;5032267;28;20004;-73
2023/07/16 08:52:59;;;;;;;;;;;;;;;23.05;46.40;101080.63;5080613;28;19924;-73
2023/07/16 08:55:24;;;;;;;;;;;;;;;23.05;46.56;101075.19;5033307;28;19921;-72
2023/07/16 08:57:49;;;;;;;;;;;;;;;23.07;46.61;101081.28;5048001;28;19921;-74
2023/07/16 09:00:15;;;;;;;;;;;;;;;23.06;46.56;101080.41;5080225;28;19999;-73
2023/07/16 09:02:40;;;;;;;;;;;;;;;23.06;46.57;101091.28;5079733;28;19949;-74
2023/07/16 09:05:05;;;;;;;;;;;;;;;23.07;46.89;101086.72;5026970;28;19957;-73
2023/07/16 09:07:31;;;;;;;;;;;;;;;23.06;46.54;101083.13;5046678;28;19932;-73
2023/07/16 09:09:58;;;;;;;;;;;;;;;23.07;46.69;101086.72;5046562;28;20422;-73
2023/07/16 09:12:23;;;;;;;;;;;;;;;23.06;46.69;101093.97;5051138;28;19917;-73
2023/07/16 09:14:48;;;;;;;;;;;;;;;23.07;46.75;101097.56;5047175;28;20020;-73
2023/07/16 09:17:14;;;;;;;;;;;;;;;23.07;46.63;101108.41;5046204;28;19940;-77
2023/07/16 09:19:39;;;;;;;;;;;;;;;23.07;46.63;101100.28;5083591;28;19924;-75
2023/07/16 09:22:04;;;;;;;;;;;;;;;23.06;46.30;101102.13;5049092;28;20019;-75
2023/07/16 09:24:29;;;;;;;;;;;;;;;23.05;46.42;101110.44;5049264;28;20011;-75
2023/07/16 09:27:00;;;;;;;;;;;;;;;23.03;46.32;101102.53;5046755;28;19936;-77
2023/07/16 09:29:28;;;;;;;;;;;;;;;23.03;46.50;101118.78;5050725;28;19927;-76
2023/07/16 09:31:57;;;;;;;;;;;;;;;23.03;46.29;101109.81;5045210;28;20438;-76
2023/07/16 09:34:23;;;;;;;;;;;;;;;23.03;46.33;101116.09;5076512;28;20143;-75
2023/07/16 09:36:49;;;;;;;;;;;;;;;23.02;46.23;101114.38;5044427;28;19921;-76
2023/07/16 09:39:15;;;;;;;;;;;;;;;23.02;46.44;101127.09;5078213;28;19931;-76
2023/07/16 09:41:40;;;;;;;;;;;;;;;23.03;46.64;101120.66;5046093;28;20488;-75
2023/07/16 09:44:06;;;;;;;;;;;;;;;23.03;46.44;101123.38;5042985;28;19940;-76
2023/07/16 09:46:31;;;;;;;;;;;;;;;23.01;46.54;101134.41;5050086;28;19948;-75
2023/07/16 09:48:56;;;;;;;;;;;;;;;23.01;46.29;101137.09;5046473;28;19916;-75
2023/07/16 09:51:21;;;;;;;;;;;;;;;23.00;46.55;101138.16;5049186;28;19928;-76
2023/07/16 09:53:46;;;;;;;;;;;;;;;23.01;46.55;101136.28;5047195;28;19924;-75
2023/07/16 09:56:12;;;;;;;;;;;;;;;23.01;46.33;101145.25;5047158;28;19927;-73
2023/07/16 09:58:37;;;;;;;;;;;;;;;23.01;46.40;101145.25;5078212;28;19917;-72
2023/07/16 10:01:02;;;;;;;;;;;;;;;23.05;46.57;101145.72;5046944;28;19924;-74
2023/07/16 10:03:27;;;;;;;;;;;;;;;23.05;46.63;101143.84;5048641;28;19928;-78
2023/07/16 10:05:52;;;;;;;;;;;;;;;23.05;46.56;101154.69;5044217;28;19921;-76
2023/07/16 10:08:18;;;;;;;;;;;;;;;23.04;47.02;101147.59;5049315;28;19921;-76
2023/07/16 10:10:52;;;;;;;;;;;;;;;23.05;46.57;101151.97;5064752;28;19981;-76
2023/07/16 10:13:17;;;;;;;;;;;;;;;23.06;46.50;101150.94;5044688;28;19917;-76
2023/07/16 10:16:01;;;;;;;;;;;;;;;23.06;46.81;101169.91;5034317;28;20373;-77
2023/07/16 10:18:34;;;;;;;;;;;;;;;23.07;46.81;101157.22;5061253;28;19968;-76
2023/07/16 10:21:00;;;;;;;;;;;;;;;23.06;46.87;101172.63;5055158;28;19917;-75
2023/07/16 10:23:25;;;;;;;;;;;;;;;23.07;46.50;101162.66;5031734;28;19913;-73
2023/07/16 10:25:57;;;;;;;;;;;;;;;23.10;46.80;101168.50;5073865;28;19925;-77
2023/07/16 10:28:22;;;;;;;;;;;;;;;23.10;46.78;101162.25;5047516;28;19913;-78
2023/07/16 10:30:49;;;;;;;;;;;;;;;23.08;46.35;101164.31;5049488;28;19924;-77
2023/07/16 10:33:14;;;;;;;;;;;;;;;23.07;46.56;101168.06;5045211;28;19955;-77
2023/07/16 10:35:42;;;;;;;;;;;;;;;23.09;46.66;101177.69;5047326;28;19928;-74
2023/07/16 10:38:07;;;;;;;;;;;;;;;23.09;46.29;101174.13;5076055;28;20398;-73
2023/07/16 10:40:32;;;;;;;;;;;;;;;23.09;46.48;101174.97;5048051;28;19920;-74
2023/07/16 10:42:58;;;;;;;;;;;;;;;23.09;46.78;101183.09;5049754;28;19921;-73
2023/07/16 10:45:23;;;;;;;;;;;;;;;23.10;46.75;101186.66;5044191;28;19921;-74
2023/07/16 10:47:52;;;;;;;;;;;;;;;23.10;46.55;101190.22;5083912;28;19960;-74
2023/07/16 10:50:18;;;;;;;;;;;;;;;23.11;46.46;101193.78;5050846;28;19917;-75
2023/07/16 10:52:43;;;;;;;;;;;;;;;23.11;46.35;101191.06;5054167;28;19984;-75
2023/07/16 10:55:08;;;;;;;;;;;;;;;23.11;46.40;101196.50;5050698;28;19991;-75
2023/07/16 10:57:34;;;;;;;;;;;;;;;23.10;46.30;101198.34;5051521;28;19956;-74
2023/07/16 11:00:00;;;;;;;;;;;;;;;23.09;46.48;101209.38;5046872;28;19941;-77
2023/07/16 11:02:25;;;;;;;;;;;;;;;23.08;46.35;101203.13;5067713;28;19921;-76
2023/07/16 11:04:53;;;;;;;;;;;;;;;23.06;45.87;101199.75;5049493;28;19988;-77
2023/07/16 11:07:18;;;;;;;;;;;;;;;23.06;46.00;101212.47;5081496;28;19921;-78
2023/07/16 11:09:47;;;;;;;;;;;;;;;23.05;46.21;101214.34;5066426;28;19917;-75
2023/07/16 11:12:13;;;;;;;;;;;;;;;23.06;46.21;101201.63;5051508;28;19917;-75
2023/07/16 11:14:39;;;;;;;;;;;;;;;23.10;46.26;101202.94;5047853;28;19986;-75
2023/07/16 11:17:08;;;;;;;;;;;;;;;23.09;46.41;101207.50;5051599;28;19963;-75
2023/07/16 11:19:34;;;;;;;;;;;;;;;23.08;45.94;101203.13;5048373;28;19976;-75
2023/07/16 11:22:00;;;;;;;;;;;;;;;23.09;46.21;101204.81;5047597;28;19917;-73
2023/07/16 11:24:27;;;;;;;;;;;;;;;23.12;46.49;101204.44;5045566;28;19928;-74
2023/07/16 11:26:52;;;;;;;;;;;;;;;23.14;46.41;101212.38;5047626;28;19931;-75
2023/07/16 11:29:17;;;;;;;;;;;;;;;23.16;46.62;101215.75;5079053;28;20011;-74
2023/07/16 11:31:43;;;;;;;;;;;;;;;23.17;46.75;101217.44;5054492;28;19976;-75
2023/07/16 11:34:12;;;;;;;;;;;;;;;23.19;47.13;101228.91;5045144;28;19985;-73
2023/07/16 11:36:37;;;;;;;;;;;;;;;23.19;47.25;101223.50;5051575;28;20011;-73
2023/07/16 11:39:03;;;;;;;;;;;;;;;23.20;47.35;101230.63;5082382;28;19928;-73
2023/07/16 11:41:28;;;;;;;;;;;;;;;23.20;47.60;101234.16;5049562;28;19963;-74
2023/07/16 11:43:53;;;;;;;;;;;;;;;23.21;47.48;101224.16;5047396;28;19931;-72
2023/07/16 11:46:18;;;;;;;;;;;;;;;23.22;47.54;101233.97;5052283;28;19967;-73
2023/07/16 11:48:44;;;;;;;;;;;;;;;23.22;47.80;101227.72;5048112;28;19927;-73
2023/07/16 11:51:09;;;;;;;;;;;;;;;23.23;47.79;101238.34;5055403;28;20767;-74
2023/07/16 11:53:34;;;;;;;;;;;;;;;23.26;47.76;101250.72;5051495;28;20017;-72
2023/07/16 11:55:59;;;;;;;;;;;;;;;23.26;47.74;101238.00;5050071;28;19917;-75
2023/07/16 11:58:24;;;;;;;;;;;;;;;23.26;48.08;101238.00;5053061;28;19921;-75
2023/07/16 12:00:51;;;;;;;;;;;;;;;23.29;48.00;101234.91;5050531;28;19921;-75
2023/07/16 12:03:16;;;;;;;;;;;;;;;23.32;48.09;101244.50;5054610;28;19978;-75
2023/07/16 12:05:41;;;;;;;;;;;;;;;23.34;48.08;101235.16;5051639;28;19928;-75
2023/07/16 12:08:13;;;;;;;;;;;;;;;23.36;48.13;101233.13;5039765;28;20456;-74
2023/07/16 12:10:38;;;;;;;;;;;;;;;23.40;48.19;101233.56;5053808;28;19913;-74
2023/07/16 12:13:04;;;;;;;;;;;;;;;23.41;48.20;101244.25;5080301;28;19921;-74
2023/07/16 12:15:29;;;;;;;;;;;;;;;23.43;48.51;101238.59;5046525;28;19921;-74
2023/07/16 12:17:54;;;;;;;;;;;;;;;23.44;48.41;101240.28;5048526;28;19921;-74
2023/07/16 12:20:19;;;;;;;;;;;;;;;23.46;48.50;101240.94;5049154;28;19921;-74
2023/07/16 12:22:44;;;;;;;;;;;;;;;23.45;48.51;101244.69;5080966;28;19925;-74
2023/07/16 12:25:10;;;;;;;;;;;;;;;23.47;48.62;101247.22;5048290;28;21009;-74
2023/07/16 12:27:35;;;;;;;;;;;;;;;23.47;48.46;101241.78;5045171;28;20444;-74